NCAR-RAP Real-Time Weather Data

Output produced by METARs form (18 August 2018  01:02 UTC)
found at http://weather.rap.ucar.edu/surface/
 
RORS 180000Z 14017KT 9999 SCT016 SCT035 29/25 Q1004
RORS 172300Z 15014KT 9999 FEW014 SCT090 BKN/// 29/25 Q1004
RORS 172200Z 15011KT 9999 VCSH SCT012 BKN018 FEW025TCU 28/25 Q1003
RORS 171000Z 14019KT 9999 VCSH FEW009 SCT060 BKN150 26/24 Q1002
RORS 170900Z 14017KT 9999 FEW010 BKN/// 27/25 Q1002
RORS 170800Z 14020KT 9999 -SHRA FEW008 SCT012 BKN025 27/25 Q1001
RORS 170700Z 14020KT 9999 -SHRA FEW010 SCT020 FEW025TCU BKN/// 28/25 Q1001
RORS 170600Z 14019KT 9999 -SHRA FEW010 FEW025TCU BKN/// 28/25 Q1001
RORS 170500Z 15021KT 9999 -SHRA FEW009 BKN019 FEW025TCU 28/25 Q1001
RORS 170400Z 16018KT 9999 -SHRA FEW009 BKN015 FEW020TCU 30/26 Q1001
RORS 170300Z 15017KT 9999 FEW014 FEW020TCU SCT050 BKN/// 31/26 Q1001
RORS 170200Z 18017KT 9999 VCSH FEW015 SCT040 BKN/// 30/26 Q1002
RORS 170100Z 18015KT 9999 -SHRA FEW014 SCT025 BKN035 29/26 Q1002
RORS 170000Z 19016KT 9999 -SHRA SCT015 BKN040 29/25 Q1001
RORS 162300Z 18018KT 9999 -SHRA SCT016 FEW020TCU BKN050 29/26 Q1001
RORS 162200Z 18018KT 9999 VCSH FEW014 SCT018 BKN070 28/25 Q1001
RORS 161000Z 20017KT 9999 VCSH FEW014 SCT040 BKN180 27/25 Q1000
RORS 160900Z 21018KT 9999 BKN013 BKN018 28/25 Q1000
RORS 160800Z 21014KT 9999 SCT010 BKN015 27/25 Q1000
RORS 160700Z 20015KT 9999 -RA FEW010 BKN040 26/25 Q1000
RORS 160600Z 21015KT 9999 -SHRA SCT010 BKN018 27/25 Q1000
RORS 160500Z 21013KT 9999 -SHRA FEW008 BKN030 26/25 Q1001
RORS 160400Z 18015KT 9999 -RA FEW007 SCT010 BKN050 28/26 Q1001
RORS 160300Z 19009KT 9999 -SHRA FEW007 SCT010 BKN050 27/26 Q1001
RORS 160200Z 21015KT 9999 -SHRA FEW010 BKN020 BKN050 27/26 Q1002
RORS 160100Z 20016KT 9999 -SHRA FEW008 SCT010 BKN050 26/25 Q1002
RORS 160012Z 21013KT 8000 -SHRA FEW008 BKN010 BKN040 26/26 Q1002 RMK 2ST008 5CU010 7SC040 A2959 3000NE
RORS 160000Z 21010KT 4000 R35/1400VP1800U SHRA SCT010 BKN015 BKN040 26/25 Q1002
RORS 152300Z 17009KT 9999 -RA FEW006 SCT010 BKN040 26/25 Q1002
RORS 152200Z 19012KT 9999 -RA FEW006 BKN040 26/25 Q1001